sensor_id;sensor_type;location;lat;lon;timestamp;pressure;altitude;pressure_sealevel;temperature;humidity
49877;BME280;35771;48.978;9.294;2022-07-05T06:35:51;99374.16;;;21.72;56.49
49877;BME280;35771;48.978;9.294;2022-07-05T06:38:18;99378.56;;;21.90;54.37
49877;BME280;35771;48.978;9.294;2022-07-05T06:40:44;99372.88;;;22.19;54.12
49877;BME280;35771;48.978;9.294;2022-07-05T06:43:13;99372.97;;;22.68;54.22
49877;BME280;35771;48.978;9.294;2022-07-05T06:45:40;99369.22;;;23.07;53.87
49877;BME280;35771;48.978;9.294;2022-07-05T06:48:08;99365.91;;;23.37;51.63
49877;BME280;35771;48.978;9.294;2022-07-05T06:50:37;99367.00;;;23.36;50.41
49877;BME280;35771;48.978;9.294;2022-07-05T06:53:06;99374.47;;;23.68;48.50
49877;BME280;35771;48.978;9.294;2022-07-05T06:55:33;99372.03;;;23.72;45.21
49877;BME280;35771;48.978;9.294;2022-07-05T06:58:01;99364.50;;;23.67;44.76
49877;BME280;35771;48.978;9.294;2022-07-05T07:00:29;99356.97;;;23.62;45.75
49877;BME280;35771;48.978;9.294;2022-07-05T07:02:56;99373.88;;;23.61;47.13
49877;BME280;35771;48.978;9.294;2022-07-05T07:05:23;99381.25;;;23.82;46.79
49877;BME280;35771;48.978;9.294;2022-07-05T07:07:50;99363.63;;;23.99;45.16
49877;BME280;35771;48.978;9.294;2022-07-05T07:10:35;99377.38;;;23.83;46.85
49877;BME280;35771;48.978;9.294;2022-07-05T07:13:03;99371.97;;;24.04;49.14
49877;BME280;35771;48.978;9.294;2022-07-05T07:15:30;99380.97;;;24.27;48.23
49877;BME280;35771;48.978;9.294;2022-07-05T07:17:58;99381.47;;;24.13;46.71
49877;BME280;35771;48.978;9.294;2022-07-05T07:20:25;99390.28;;;24.53;46.39
49877;BME280;35771;48.978;9.294;2022-07-05T07:22:52;99382.47;;;24.50;46.72
49877;BME280;35771;48.978;9.294;2022-07-05T07:25:19;99382.56;;;24.70;46.48
49877;BME280;35771;48.978;9.294;2022-07-05T07:27:51;99389.63;;;24.35;48.36
49877;BME280;35771;48.978;9.294;2022-07-05T07:30:18;99398.16;;;24.71;46.61
49877;BME280;35771;48.978;9.294;2022-07-05T07:32:46;99392.19;;;24.47;46.90
49877;BME280;35771;48.978;9.294;2022-07-05T07:35:13;99387.50;;;24.53;47.29
49877;BME280;35771;48.978;9.294;2022-07-05T07:37:39;99393.72;;;24.76;46.96
49877;BME280;35771;48.978;9.294;2022-07-05T07:40:07;99391.91;;;25.33;46.77
49877;BME280;35771;48.978;9.294;2022-07-05T07:42:34;99372.94;;;25.19;46.41
49877;BME280;35771;48.978;9.294;2022-07-05T07:45:03;99381.06;;;25.31;45.80
49877;BME280;35771;48.978;9.294;2022-07-05T07:47:29;99391.63;;;25.75;46.23
49877;BME280;35771;48.978;9.294;2022-07-05T07:49:56;99395.00;;;25.41;46.21
49877;BME280;35771;48.978;9.294;2022-07-05T07:52:22;99386.34;;;25.53;45.55
49877;BME280;35771;48.978;9.294;2022-07-05T07:54:49;99401.09;;;25.49;45.94
49877;BME280;35771;48.978;9.294;2022-07-05T07:57:15;99386.31;;;25.22;46.40
49877;BME280;35771;48.978;9.294;2022-07-05T07:59:42;99383.50;;;25.07;46.54
49877;BME280;35771;48.978;9.294;2022-07-05T08:02:10;99391.00;;;25.01;47.19
49877;BME280;35771;48.978;9.294;2022-07-05T08:04:37;99394.63;;;25.07;47.57
49877;BME280;35771;48.978;9.294;2022-07-05T08:07:04;99397.94;;;24.94;46.35
49877;BME280;35771;48.978;9.294;2022-07-05T08:09:30;99402.44;;;25.10;46.91
49877;BME280;35771;48.978;9.294;2022-07-05T08:11:57;99390.16;;;24.96;47.04
49877;BME280;35771;48.978;9.294;2022-07-05T08:14:24;99392.41;;;25.09;47.16
49877;BME280;35771;48.978;9.294;2022-07-05T08:16:51;99386.88;;;25.19;43.58
49877;BME280;35771;48.978;9.294;2022-07-05T08:19:19;99397.41;;;24.97;45.59
49877;BME280;35771;48.978;9.294;2022-07-05T08:22:04;99391.34;;;25.41;43.18
49877;BME280;35771;48.978;9.294;2022-07-05T08:24:32;99389.13;;;25.53;41.50
49877;BME280;35771;48.978;9.294;2022-07-05T08:26:59;99374.91;;;25.86;40.58
49877;BME280;35771;48.978;9.294;2022-07-05T08:29:25;99386.25;;;26.25;40.59
49877;BME280;35771;48.978;9.294;2022-07-05T08:31:52;99395.22;;;26.17;39.45
49877;BME280;35771;48.978;9.294;2022-07-05T08:34:20;99389.66;;;25.96;39.71
49877;BME280;35771;48.978;9.294;2022-07-05T08:36:47;99393.88;;;25.84;41.44
49877;BME280;35771;48.978;9.294;2022-07-05T08:39:13;99394.69;;;25.79;41.26
49877;BME280;35771;48.978;9.294;2022-07-05T08:41:42;99387.75;;;25.76;41.38
49877;BME280;35771;48.978;9.294;2022-07-05T08:44:09;99392.22;;;25.41;41.75
49877;BME280;35771;48.978;9.294;2022-07-05T08:46:37;99379.69;;;25.49;40.06
49877;BME280;35771;48.978;9.294;2022-07-05T08:49:05;99394.69;;;25.84;41.29
49877;BME280;35771;48.978;9.294;2022-07-05T08:51:36;99376.31;;;26.04;40.07
49877;BME280;35771;48.978;9.294;2022-07-05T08:54:04;99389.94;;;25.95;39.15
49877;BME280;35771;48.978;9.294;2022-07-05T08:56:33;99384.91;;;26.07;42.02
49877;BME280;35771;48.978;9.294;2022-07-05T08:59:00;99393.00;;;25.93;39.24
49877;BME280;35771;48.978;9.294;2022-07-05T09:01:27;99382.72;;;25.99;41.47
49877;BME280;35771;48.978;9.294;2022-07-05T09:03:56;99382.38;;;26.26;40.36
49877;BME280;35771;48.978;9.294;2022-07-05T09:06:26;99386.16;;;26.56;38.61
49877;BME280;35771;48.978;9.294;2022-07-05T09:08:55;99387.31;;;26.50;38.56
49877;BME280;35771;48.978;9.294;2022-07-05T09:11:24;99390.31;;;26.64;39.18
49877;BME280;35771;48.978;9.294;2022-07-05T09:13:51;99375.94;;;26.36;38.22
49877;BME280;35771;48.978;9.294;2022-07-05T09:16:18;99373.38;;;26.45;38.95
49877;BME280;35771;48.978;9.294;2022-07-05T09:18:45;99386.22;;;26.36;39.63
49877;BME280;35771;48.978;9.294;2022-07-05T09:21:14;99373.44;;;26.29;36.76
49877;BME280;35771;48.978;9.294;2022-07-05T09:23:41;99376.19;;;26.40;37.28
49877;BME280;35771;48.978;9.294;2022-07-05T09:26:09;99378.47;;;26.22;38.34
49877;BME280;35771;48.978;9.294;2022-07-05T09:28:36;99380.09;;;26.44;38.61
49877;BME280;35771;48.978;9.294;2022-07-05T09:31:03;99378.22;;;26.13;38.54
49877;BME280;35771;48.978;9.294;2022-07-05T09:33:29;99389.91;;;26.10;38.48
49877;BME280;35771;48.978;9.294;2022-07-05T09:35:57;99384.88;;;26.28;37.39
49877;BME280;35771;48.978;9.294;2022-07-05T09:38:24;99385.44;;;26.25;36.00
49877;BME280;35771;48.978;9.294;2022-07-05T09:40:53;99392.25;;;26.69;36.38
49877;BME280;35771;48.978;9.294;2022-07-05T09:43:22;99385.34;;;26.50;37.11
49877;BME280;35771;48.978;9.294;2022-07-05T09:45:53;99390.88;;;26.61;36.81
49877;BME280;35771;48.978;9.294;2022-07-05T09:48:20;99396.28;;;26.97;36.20
49877;BME280;35771;48.978;9.294;2022-07-05T09:50:48;99391.16;;;27.14;34.88
49877;BME280;35771;48.978;9.294;2022-07-05T09:53:14;99385.78;;;26.83;36.33
49877;BME280;35771;48.978;9.294;2022-07-05T09:55:41;99384.19;;;26.67;34.92
49877;BME280;35771;48.978;9.294;2022-07-05T09:58:07;99379.75;;;26.56;35.34
49877;BME280;35771;48.978;9.294;2022-07-05T10:00:35;99397.31;;;26.66;32.96
49877;BME280;35771;48.978;9.294;2022-07-05T10:03:02;99400.28;;;26.80;35.51
49877;BME280;35771;48.978;9.294;2022-07-05T10:05:30;99388.91;;;26.61;33.36
49877;BME280;35771;48.978;9.294;2022-07-05T10:07:57;99378.91;;;26.55;32.78
49877;BME280;35771;48.978;9.294;2022-07-05T10:10:25;99386.09;;;26.77;33.87
49877;BME280;35771;48.978;9.294;2022-07-05T10:12:53;99377.53;;;27.08;33.52
49877;BME280;35771;48.978;9.294;2022-07-05T10:15:22;99383.59;;;27.20;33.54
49877;BME280;35771;48.978;9.294;2022-07-05T10:17:53;99375.69;;;27.37;32.55
49877;BME280;35771;48.978;9.294;2022-07-05T10:20:26;99371.63;;;27.54;32.60
49877;BME280;35771;48.978;9.294;2022-07-05T10:22:55;99378.69;;;27.76;33.09
49877;BME280;35771;48.978;9.294;2022-07-05T10:25:22;99371.16;;;28.05;32.22
49877;BME280;35771;48.978;9.294;2022-07-05T10:27:51;99364.03;;;27.89;31.37
49877;BME280;35771;48.978;9.294;2022-07-05T10:30:19;99387.75;;;27.92;31.51
49877;BME280;35771;48.978;9.294;2022-07-05T10:32:46;99371.94;;;27.47;32.03
49877;BME280;35771;48.978;9.294;2022-07-05T10:35:15;99363.91;;;27.01;32.26
49877;BME280;35771;48.978;9.294;2022-07-05T10:37:42;99383.91;;;27.13;32.70
49877;BME280;35771;48.978;9.294;2022-07-05T10:40:10;99381.06;;;27.24;32.14
49877;BME280;35771;48.978;9.294;2022-07-05T10:42:39;99363.97;;;27.30;30.30
49877;BME280;35771;48.978;9.294;2022-07-05T10:45:25;99382.88;;;27.73;31.36
49877;BME280;35771;48.978;9.294;2022-07-05T10:48:18;99362.91;;;27.90;29.56
49877;BME280;35771;48.978;9.294;2022-07-05T10:50:48;99387.63;;;28.07;29.24
49877;BME280;35771;48.978;9.294;2022-07-05T10:53:16;99380.25;;;28.16;29.55
49877;BME280;35771;48.978;9.294;2022-07-05T10:55:47;99372.72;;;27.87;28.43
49877;BME280;35771;48.978;9.294;2022-07-05T10:58:22;99368.59;;;28.33;29.71
49877;BME280;35771;48.978;9.294;2022-07-05T11:03:49;99378.72;;;28.53;29.63
49877;BME280;35771;48.978;9.294;2022-07-05T11:06:23;99373.03;;;28.58;30.46
49877;BME280;35771;48.978;9.294;2022-07-05T11:11:37;99359.88;;;28.64;29.52
49877;BME280;35771;48.978;9.294;2022-07-05T11:17:18;99374.78;;;29.17;29.05
49877;BME280;35771;48.978;9.294;2022-07-05T11:20:10;99391.50;;;29.22;29.28
49877;BME280;35771;48.978;9.294;2022-07-05T11:22:40;99374.97;;;28.15;29.87
49877;BME280;35771;48.978;9.294;2022-07-05T11:25:09;99376.28;;;27.64;31.24
49877;BME280;35771;48.978;9.294;2022-07-05T11:28:00;99360.25;;;27.75;30.70
49877;BME280;35771;48.978;9.294;2022-07-05T11:30:44;99367.38;;;28.20;29.18
49877;BME280;35771;48.978;9.294;2022-07-05T11:33:29;99364.38;;;28.60;31.12
49877;BME280;35771;48.978;9.294;2022-07-05T11:35:56;99360.84;;;28.73;29.58
49877;BME280;35771;48.978;9.294;2022-07-05T11:38:24;99379.25;;;28.99;29.39
49877;BME280;35771;48.978;9.294;2022-07-05T11:40:54;99374.31;;;28.71;28.48
49877;BME280;35771;48.978;9.294;2022-07-05T11:43:27;99363.38;;;28.27;30.33
49877;BME280;35771;48.978;9.294;2022-07-05T11:45:57;99368.28;;;28.35;29.55
49877;BME280;35771;48.978;9.294;2022-07-05T11:48:26;99372.72;;;28.84;29.68
49877;BME280;35771;48.978;9.294;2022-07-05T11:50:53;99368.94;;;29.13;29.33
49877;BME280;35771;48.978;9.294;2022-07-05T11:53:27;99352.38;;;29.17;27.34
49877;BME280;35771;48.978;9.294;2022-07-05T11:55:55;99355.78;;;28.75;29.31
49877;BME280;35771;48.978;9.294;2022-07-05T11:58:30;99349.03;;;29.14;29.22
49877;BME280;35771;48.978;9.294;2022-07-05T12:00:56;99353.50;;;28.96;28.63
49877;BME280;35771;48.978;9.294;2022-07-05T12:03:23;99336.81;;;29.10;28.67
49877;BME280;35771;48.978;9.294;2022-07-05T12:05:50;99362.06;;;29.05;27.92
49877;BME280;35771;48.978;9.294;2022-07-05T12:08:21;99350.09;;;28.62;29.09
49877;BME280;35771;48.978;9.294;2022-07-05T12:10:49;99343.72;;;28.80;28.54
49877;BME280;35771;48.978;9.294;2022-07-05T12:13:43;99350.19;;;28.75;27.80
49877;BME280;35771;48.978;9.294;2022-07-05T12:16:10;99340.97;;;29.32;26.14
49877;BME280;35771;48.978;9.294;2022-07-05T12:18:49;99342.41;;;29.10;27.63
49877;BME280;35771;48.978;9.294;2022-07-05T12:21:16;99337.19;;;29.42;28.28
49877;BME280;35771;48.978;9.294;2022-07-05T12:23:46;99309.34;;;29.78;29.66
49877;BME280;35771;48.978;9.294;2022-07-05T12:26:14;99319.97;;;29.81;26.03
49877;BME280;35771;48.978;9.294;2022-07-05T12:28:42;99317.38;;;30.13;26.24
49877;BME280;35771;48.978;9.294;2022-07-05T12:31:16;99326.50;;;30.18;27.28
49877;BME280;35771;48.978;9.294;2022-07-05T12:33:42;99328.56;;;29.52;28.47
49877;BME280;35771;48.978;9.294;2022-07-05T12:36:10;99319.28;;;29.71;28.80
49877;BME280;35771;48.978;9.294;2022-07-05T12:38:37;99322.22;;;29.79;27.63
49877;BME280;35771;48.978;9.294;2022-07-05T12:41:04;99315.03;;;29.73;26.10
49877;BME280;35771;48.978;9.294;2022-07-05T12:43:32;99320.94;;;29.72;27.21
49877;BME280;35771;48.978;9.294;2022-07-05T12:46:00;99336.03;;;29.90;26.63
49877;BME280;35771;48.978;9.294;2022-07-05T12:48:30;99328.56;;;29.85;26.40
49877;BME280;35771;48.978;9.294;2022-07-05T12:50:57;99332.66;;;30.21;26.19
49877;BME280;35771;48.978;9.294;2022-07-05T12:53:25;99313.34;;;30.05;26.30
49877;BME280;35771;48.978;9.294;2022-07-05T12:56:11;99309.38;;;30.48;25.96
49877;BME280;35771;48.978;9.294;2022-07-05T12:58:58;99311.69;;;30.46;24.63
49877;BME280;35771;48.978;9.294;2022-07-05T13:01:26;99324.53;;;29.58;26.97
49877;BME280;35771;48.978;9.294;2022-07-05T13:04:01;99322.00;;;29.76;27.97
49877;BME280;35771;48.978;9.294;2022-07-05T13:06:43;99327.06;;;29.60;26.01
49877;BME280;35771;48.978;9.294;2022-07-05T13:09:11;99325.16;;;29.55;26.90
49877;BME280;35771;48.978;9.294;2022-07-05T13:11:38;99310.47;;;29.63;26.15
49877;BME280;35771;48.978;9.294;2022-07-05T13:14:06;99322.78;;;30.37;25.93
49877;BME280;35771;48.978;9.294;2022-07-05T13:16:33;99304.56;;;29.79;25.91
49877;BME280;35771;48.978;9.294;2022-07-05T13:19:07;99322.78;;;30.09;25.90
49877;BME280;35771;48.978;9.294;2022-07-05T13:21:33;99311.25;;;30.25;26.08
49877;BME280;35771;48.978;9.294;2022-07-05T13:24:00;99311.88;;;30.08;26.77
49877;BME280;35771;48.978;9.294;2022-07-05T13:26:27;99318.63;;;30.07;26.85
49877;BME280;35771;48.978;9.294;2022-07-05T13:28:54;99307.09;;;30.22;26.68
49877;BME280;35771;48.978;9.294;2022-07-05T13:31:22;99305.88;;;30.00;25.84
49877;BME280;35771;48.978;9.294;2022-07-05T13:33:48;99317.06;;;29.87;25.64
49877;BME280;35771;48.978;9.294;2022-07-05T13:36:15;99296.84;;;29.57;26.27
49877;BME280;35771;48.978;9.294;2022-07-05T13:38:41;99311.44;;;29.87;26.00
49877;BME280;35771;48.978;9.294;2022-07-05T13:41:08;99319.78;;;29.59;26.71
49877;BME280;35771;48.978;9.294;2022-07-05T13:43:34;99306.78;;;29.82;25.51
49877;BME280;35771;48.978;9.294;2022-07-05T13:46:01;99308.22;;;30.35;25.55
49877;BME280;35771;48.978;9.294;2022-07-05T13:48:29;99314.16;;;30.19;25.44
49877;BME280;35771;48.978;9.294;2022-07-05T13:50:55;99306.56;;;30.34;25.26
49877;BME280;35771;48.978;9.294;2022-07-05T13:53:22;99306.91;;;30.32;25.32
49877;BME280;35771;48.978;9.294;2022-07-05T13:55:48;99302.53;;;30.54;24.79
49877;BME280;35771;48.978;9.294;2022-07-05T13:58:15;99309.34;;;29.78;25.97
49877;BME280;35771;48.978;9.294;2022-07-05T14:00:41;99307.97;;;29.76;25.88
49877;BME280;35771;48.978;9.294;2022-07-05T14:03:07;99309.59;;;29.49;26.64
49877;BME280;35771;48.978;9.294;2022-07-05T14:05:35;99308.59;;;29.26;26.17
49877;BME280;35771;48.978;9.294;2022-07-05T14:08:03;99318.50;;;29.18;26.64
49877;BME280;35771;48.978;9.294;2022-07-05T14:10:29;99306.19;;;29.00;25.89
49877;BME280;35771;48.978;9.294;2022-07-05T14:12:56;99315.94;;;29.22;25.21
49877;BME280;35771;48.978;9.294;2022-07-05T14:15:22;99318.22;;;29.86;26.89
49877;BME280;35771;48.978;9.294;2022-07-05T14:17:49;99313.13;;;30.01;24.47
49877;BME280;35771;48.978;9.294;2022-07-05T14:20:15;99313.97;;;30.16;24.17
49877;BME280;35771;48.978;9.294;2022-07-05T14:22:43;99312.91;;;30.12;23.78
49877;BME280;35771;48.978;9.294;2022-07-05T14:25:10;99303.56;;;30.30;24.25
49877;BME280;35771;48.978;9.294;2022-07-05T14:27:36;99310.72;;;30.36;24.29
49877;BME280;35771;48.978;9.294;2022-07-05T14:30:04;99300.97;;;30.34;24.54
49877;BME280;35771;48.978;9.294;2022-07-05T14:32:33;99298.91;;;30.12;25.78
49877;BME280;35771;48.978;9.294;2022-07-05T14:34:59;99288.97;;;29.59;25.44
49877;BME280;35771;48.978;9.294;2022-07-05T14:37:26;99295.00;;;29.66;25.01
49877;BME280;35771;48.978;9.294;2022-07-05T14:39:54;99289.41;;;29.80;26.25
49877;BME280;35771;48.978;9.294;2022-07-05T14:42:21;99286.34;;;29.95;24.92
49877;BME280;35771;48.978;9.294;2022-07-05T14:44:48;99276.06;;;30.32;25.28
49877;BME280;35771;48.978;9.294;2022-07-05T14:47:14;99285.81;;;30.21;24.41
49877;BME280;35771;48.978;9.294;2022-07-05T14:49:40;99283.53;;;29.95;24.48
49877;BME280;35771;48.978;9.294;2022-07-05T14:52:07;99280.03;;;30.04;25.54
49877;BME280;35771;48.978;9.294;2022-07-05T14:54:34;99262.03;;;30.32;23.98
49877;BME280;35771;48.978;9.294;2022-07-05T14:57:02;99275.00;;;30.28;25.25
49877;BME280;35771;48.978;9.294;2022-07-05T14:59:28;99275.44;;;30.08;24.57
49877;BME280;35771;48.978;9.294;2022-07-05T15:01:55;99272.84;;;29.83;24.56
49877;BME280;35771;48.978;9.294;2022-07-05T15:04:21;99273.16;;;29.82;24.29
49877;BME280;35771;48.978;9.294;2022-07-05T15:06:51;99268.47;;;29.91;23.72
49877;BME280;35771;48.978;9.294;2022-07-05T15:09:18;99262.97;;;30.00;24.20
49877;BME280;35771;48.978;9.294;2022-07-05T15:11:44;99268.28;;;29.88;25.21
49877;BME280;35771;48.978;9.294;2022-07-05T15:14:12;99272.41;;;30.32;25.47
49877;BME280;35771;48.978;9.294;2022-07-05T15:16:39;99261.41;;;30.08;24.71
49877;BME280;35771;48.978;9.294;2022-07-05T15:19:06;99267.13;;;30.16;24.94
49877;BME280;35771;48.978;9.294;2022-07-05T15:21:33;99256.72;;;30.17;24.46
49877;BME280;35771;48.978;9.294;2022-07-05T15:24:00;99256.66;;;29.94;24.14
49877;BME280;35771;48.978;9.294;2022-07-05T15:26:27;99263.22;;;29.57;25.21
49877;BME280;35771;48.978;9.294;2022-07-05T15:29:01;99260.38;;;29.90;24.40
49877;BME280;35771;48.978;9.294;2022-07-05T15:31:31;99244.28;;;30.09;25.11
49877;BME280;35771;48.978;9.294;2022-07-05T15:33:58;99248.53;;;30.21;24.34
49877;BME280;35771;48.978;9.294;2022-07-05T15:36:24;99251.53;;;30.52;25.14
49877;BME280;35771;48.978;9.294;2022-07-05T15:38:51;99250.03;;;30.54;24.41
49877;BME280;35771;48.978;9.294;2022-07-05T15:41:18;99229.81;;;30.44;24.57
49877;BME280;35771;48.978;9.294;2022-07-05T15:43:44;99244.28;;;30.09;25.46
49877;BME280;35771;48.978;9.294;2022-07-05T15:46:11;99234.75;;;30.10;25.63
49877;BME280;35771;48.978;9.294;2022-07-05T15:48:39;99245.66;;;29.84;24.82
49877;BME280;35771;48.978;9.294;2022-07-05T15:51:06;99231.28;;;29.44;24.56
49877;BME280;35771;48.978;9.294;2022-07-05T15:53:33;99235.91;;;29.95;24.95
49877;BME280;35771;48.978;9.294;2022-07-05T15:55:59;99238.78;;;30.18;24.57
49877;BME280;35771;48.978;9.294;2022-07-05T15:58:26;99245.66;;;29.98;25.02
49877;BME280;35771;48.978;9.294;2022-07-05T16:00:52;99241.81;;;29.94;24.53
49877;BME280;35771;48.978;9.294;2022-07-05T16:03:19;99239.22;;;30.11;24.13
49877;BME280;35771;48.978;9.294;2022-07-05T16:05:47;99234.44;;;29.98;25.09
49877;BME280;35771;48.978;9.294;2022-07-05T16:08:13;99236.72;;;29.96;25.32
49877;BME280;35771;48.978;9.294;2022-07-05T16:10:42;99239.00;;;29.80;25.11
49877;BME280;35771;48.978;9.294;2022-07-05T16:13:09;99243.44;;;29.53;25.09
49877;BME280;35771;48.978;9.294;2022-07-05T16:15:37;99243.50;;;29.34;25.17
49877;BME280;35771;48.978;9.294;2022-07-05T16:18:21;99221.44;;;29.60;25.21
49877;BME280;35771;48.978;9.294;2022-07-05T16:20:49;99225.00;;;29.94;24.34
49877;BME280;35771;48.978;9.294;2022-07-05T16:23:15;99222.00;;;30.04;24.07
49877;BME280;35771;48.978;9.294;2022-07-05T16:25:42;99226.88;;;29.85;24.48
49877;BME280;35771;48.978;9.294;2022-07-05T16:28:09;99234.22;;;29.53;24.50
49877;BME280;35771;48.978;9.294;2022-07-05T16:30:35;99224.13;;;29.38;25.17
49877;BME280;35771;48.978;9.294;2022-07-05T16:33:02;99229.38;;;29.86;25.08
49877;BME280;35771;48.978;9.294;2022-07-05T16:35:28;99233.06;;;30.09;24.67
49877;BME280;35771;48.978;9.294;2022-07-05T16:37:56;99225.81;;;29.94;23.54
49877;BME280;35771;48.978;9.294;2022-07-05T16:40:23;99229.25;;;29.91;23.43
49877;BME280;35771;48.978;9.294;2022-07-05T16:42:49;99221.44;;;29.60;24.78
49877;BME280;35771;48.978;9.294;2022-07-05T16:45:16;99220.66;;;28.94;24.68
49877;BME280;35771;48.978;9.294;2022-07-05T16:47:42;99224.38;;;28.89;25.71
49877;BME280;35771;48.978;9.294;2022-07-05T16:50:09;99201.72;;;29.24;26.79
49877;BME280;35771;48.978;9.294;2022-07-05T16:52:36;99201.25;;;29.17;25.39
49877;BME280;35771;48.978;9.294;2022-07-05T16:55:07;99217.91;;;29.08;26.22
49877;BME280;35771;48.978;9.294;2022-07-05T16:57:33;99221.91;;;29.21;26.60
49877;BME280;35771;48.978;9.294;2022-07-05T17:00:00;99218.72;;;29.08;26.04
49877;BME280;35771;48.978;9.294;2022-07-05T17:02:26;99208.41;;;28.90;26.50
49877;BME280;35771;48.978;9.294;2022-07-05T17:04:53;99208.38;;;28.76;25.49
49877;BME280;35771;48.978;9.294;2022-07-05T17:07:19;99231.00;;;28.60;25.64
49877;BME280;35771;48.978;9.294;2022-07-05T17:09:48;99238.59;;;28.55;26.17
49877;BME280;35771;48.978;9.294;2022-07-05T17:12:16;99231.63;;;28.52;25.46
49877;BME280;35771;48.978;9.294;2022-07-05T17:14:42;99221.66;;;28.84;26.57
49877;BME280;35771;48.978;9.294;2022-07-05T17:17:09;99230.91;;;28.85;25.99
49877;BME280;35771;48.978;9.294;2022-07-05T17:19:35;99236.41;;;28.71;25.85
49877;BME280;35771;48.978;9.294;2022-07-05T17:22:03;99225.88;;;28.43;25.98
49877;BME280;35771;48.978;9.294;2022-07-05T17:24:30;99237.50;;;28.32;25.96
49877;BME280;35771;48.978;9.294;2022-07-05T17:26:56;99233.97;;;28.26;26.77
49877;BME280;35771;48.978;9.294;2022-07-05T17:29:24;99232.22;;;28.11;27.66
49877;BME280;35771;48.978;9.294;2022-07-05T17:31:51;99225.38;;;27.98;26.79
49877;BME280;35771;48.978;9.294;2022-07-05T17:34:17;99230.84;;;27.84;27.63
49877;BME280;35771;48.978;9.294;2022-07-05T17:36:44;99219.16;;;27.58;27.20
49877;BME280;35771;48.978;9.294;2022-07-05T17:39:10;99233.63;;;27.84;27.38
49877;BME280;35771;48.978;9.294;2022-07-05T17:41:37;99226.50;;;27.49;27.25
49877;BME280;35771;48.978;9.294;2022-07-05T17:44:03;99229.28;;;27.49;27.74
49877;BME280;35771;48.978;9.294;2022-07-05T17:46:34;99232.59;;;27.22;27.68
49877;BME280;35771;48.978;9.294;2022-07-05T17:49:01;99229.50;;;26.94;28.18
49877;BME280;35771;48.978;9.294;2022-07-05T17:51:28;99240.81;;;26.78;29.17
49877;BME280;35771;48.978;9.294;2022-07-05T17:53:54;99243.31;;;26.75;29.59
49877;BME280;35771;48.978;9.294;2022-07-05T17:56:21;99248.38;;;26.73;29.70
49877;BME280;35771;48.978;9.294;2022-07-05T17:58:47;99249.81;;;26.60;30.11
49877;BME280;35771;48.978;9.294;2022-07-05T18:01:14;99246.75;;;26.66;30.21
49877;BME280;35771;48.978;9.294;2022-07-05T18:03:42;99225.88;;;26.54;30.52
49877;BME280;35771;48.978;9.294;2022-07-05T18:06:09;99238.50;;;26.41;30.82
49877;BME280;35771;48.978;9.294;2022-07-05T18:08:36;99245.25;;;26.35;30.24
49877;BME280;35771;48.978;9.294;2022-07-05T18:11:02;99238.00;;;26.34;30.53
49877;BME280;35771;48.978;9.294;2022-07-05T18:13:29;99245.25;;;26.35;30.63
49877;BME280;35771;48.978;9.294;2022-07-05T18:15:55;99251.06;;;26.33;31.12
49877;BME280;35771;48.978;9.294;2022-07-05T18:18:23;99252.25;;;26.22;31.02
49877;BME280;35771;48.978;9.294;2022-07-05T18:20:51;99251.19;;;26.12;31.36
49877;BME280;35771;48.978;9.294;2022-07-05T18:23:18;99253.41;;;26.10;31.88
49877;BME280;35771;48.978;9.294;2022-07-05T18:25:44;99244.00;;;25.96;31.92
49877;BME280;35771;48.978;9.294;2022-07-05T18:28:11;99249.59;;;25.86;32.08
49877;BME280;35771;48.978;9.294;2022-07-05T18:30:38;99246.84;;;25.75;31.72
49877;BME280;35771;48.978;9.294;2022-07-05T18:33:05;99242.94;;;25.71;31.74
49877;BME280;35771;48.978;9.294;2022-07-05T18:35:32;99236.84;;;25.69;32.78
49877;BME280;35771;48.978;9.294;2022-07-05T18:38:01;99245.72;;;25.82;32.63
49877;BME280;35771;48.978;9.294;2022-07-05T18:40:27;99252.44;;;25.65;34.14
49877;BME280;35771;48.978;9.294;2022-07-05T18:42:54;99244.13;;;25.55;33.82
49877;BME280;35771;48.978;9.294;2022-07-05T18:45:21;99243.59;;;25.42;33.39
49877;BME280;35771;48.978;9.294;2022-07-05T18:47:48;99249.16;;;25.48;34.02
49877;BME280;35771;48.978;9.294;2022-07-05T18:50:14;99236.38;;;25.31;33.96
49877;BME280;35771;48.978;9.294;2022-07-05T18:52:41;99261.44;;;25.31;34.06
49877;BME280;35771;48.978;9.294;2022-07-05T18:55:09;99226.66;;;25.13;34.57
49877;BME280;35771;48.978;9.294;2022-07-05T18:57:36;99258.63;;;25.21;35.47
49877;BME280;35771;48.978;9.294;2022-07-05T19:00:15;99248.06;;;25.02;35.77
49877;BME280;35771;48.978;9.294;2022-07-05T19:02:41;99248.34;;;24.90;35.55
49877;BME280;35771;48.978;9.294;2022-07-05T19:05:08;99254.47;;;24.87;36.20
49877;BME280;35771;48.978;9.294;2022-07-05T19:07:35;99262.78;;;24.82;37.30
49877;BME280;35771;48.978;9.294;2022-07-05T19:10:20;99263.88;;;24.76;38.92
49877;BME280;35771;48.978;9.294;2022-07-05T19:13:09;99264.88;;;24.34;39.72
49877;BME280;35771;48.978;9.294;2022-07-05T19:15:54;99265.13;;;24.12;42.33
49877;BME280;35771;48.978;9.294;2022-07-05T19:18:21;99245.16;;;23.67;42.25
49877;BME280;35771;48.978;9.294;2022-07-05T19:20:47;99259.19;;;23.50;41.56
49877;BME280;35771;48.978;9.294;2022-07-05T19:23:13;99260.50;;;23.32;43.64
49877;BME280;35771;48.978;9.294;2022-07-05T19:25:41;99258.47;;;23.22;43.76
49877;BME280;35771;48.978;9.294;2022-07-05T19:28:08;99264.88;;;22.95;43.56
49877;BME280;35771;48.978;9.294;2022-07-05T19:30:35;99257.09;;;22.92;44.37
49877;BME280;35771;48.978;9.294;2022-07-05T19:33:02;99256.28;;;22.65;45.17
49877;BME280;35771;48.978;9.294;2022-07-05T19:35:29;99250.84;;;22.48;45.27
49877;BME280;35771;48.978;9.294;2022-07-05T19:37:55;99244.13;;;22.16;46.93
49877;BME280;35771;48.978;9.294;2022-07-05T19:40:22;99252.28;;;21.84;47.84
49877;BME280;35771;48.978;9.294;2022-07-05T19:42:50;99259.81;;;21.88;48.55
49877;BME280;35771;48.978;9.294;2022-07-05T19:45:17;99265.63;;;21.87;50.06
49877;BME280;35771;48.978;9.294;2022-07-05T19:47:43;99264.59;;;21.71;50.80
49877;BME280;35771;48.978;9.294;2022-07-05T19:50:10;99272.44;;;21.79;50.69